Time;durP1;ratioP1;P1;durP2;ratioP2;P2;SDS_P1;SDS_P2;PMS_P1;PMS_P2;Temp;Humidity;BMP_temperature;BMP_pressure;BME280_temperature;BME280_humidity;BME280_pressure;Samples;Min_cycle;Max_cycle;Signal;HPM_P1;HPM_P2
2023/07/19 00:00:43;;;;;;;1.52;1.10;;;15.10;75.30;15.10;100422.00;;;;4968515;28;100386;-66
2023/07/19 00:03:09;;;;;;;1.30;1.08;;;15.10;75.70;15.10;100415.00;;;;4969214;28;112019;-66
2023/07/19 00:05:35;;;;;;;1.55;1.20;;;15.00;75.70;15.00;100403.00;;;;4970917;28;87570;-65
2023/07/19 00:08:04;;;;;;;1.90;1.35;;;15.00;75.80;15.00;100411.00;;;;4968840;28;96122;-67
2023/07/19 00:10:30;;;;;;;1.98;1.60;;;15.00;76.00;15.00;100416.00;;;;4972722;28;90046;-64
2023/07/19 00:12:56;;;;;;;2.30;1.52;;;14.90;76.30;15.00;100411.00;;;;4967445;28;91768;-66
2023/07/19 00:15:22;;;;;;;3.25;1.38;;;14.90;76.50;14.90;100419.00;;;;4969139;28;87687;-66
2023/07/19 00:17:47;;;;;;;3.85;1.80;;;14.90;76.70;14.90;100405.00;;;;4970916;28;88159;-66
2023/07/19 00:20:14;;;;;;;0.93;0.70;;;14.80;76.80;14.90;100402.00;;;;4964684;28;116949;-66
2023/07/19 00:22:40;;;;;;;2.85;1.42;;;14.90;77.00;14.90;100403.00;;;;4968568;28;87958;-65
2023/07/19 00:25:07;;;;;;;2.35;1.08;;;14.80;77.50;14.90;100414.00;;;;4967767;28;87666;-65
2023/07/19 00:27:33;;;;;;;1.88;1.00;;;14.80;78.10;14.90;100409.00;;;;4966401;28;88942;-65
2023/07/19 00:29:59;;;;;;;1.85;1.48;;;14.80;78.50;14.80;100403.00;;;;4969446;28;116849;-64
2023/07/19 00:32:24;;;;;;;1.80;1.40;;;14.80;79.00;14.80;100403.00;;;;4967542;28;104564;-65
2023/07/19 00:34:50;;;;;;;1.50;1.40;;;14.80;79.60;14.70;100391.00;;;;4971391;28;108967;-65
2023/07/19 00:37:16;;;;;;;2.88;1.48;;;14.70;80.00;14.70;100393.00;;;;4966285;28;116101;-64
2023/07/19 00:39:42;;;;;;;2.22;1.33;;;14.70;80.50;14.60;100392.00;;;;4970676;28;116849;-66
2023/07/19 00:42:07;;;;;;;2.90;1.77;;;14.60;81.00;14.60;100390.00;;;;4967851;28;88091;-65
2023/07/19 00:44:33;;;;;;;1.92;1.73;;;14.60;81.60;14.50;100382.00;;;;4968732;28;94125;-66
2023/07/19 00:47:02;;;;;;;0.93;0.88;;;14.50;82.10;14.50;100382.00;;;;4967377;28;88606;-65
2023/07/19 00:49:31;;;;;;;6.05;2.15;;;14.40;82.40;14.50;100379.00;;;;4972100;28;87858;-64
2023/07/19 00:52:00;;;;;;;1.75;1.30;;;14.40;82.80;14.40;100376.00;;;;4968791;28;110497;-65
2023/07/19 00:54:27;;;;;;;1.60;1.50;;;14.40;83.00;14.40;100380.00;;;;4968735;28;99308;-65
2023/07/19 00:56:53;;;;;;;1.10;1.02;;;14.40;83.30;14.30;100377.00;;;;4973128;28;88477;-65
2023/07/19 00:59:22;;;;;;;1.33;1.20;;;14.30;83.50;14.30;100367.00;;;;4972396;28;118182;-65
2023/07/19 01:01:50;;;;;;;1.50;1.38;;;14.30;83.70;14.20;100369.00;;;;4968229;28;104193;-64
2023/07/19 01:04:16;;;;;;;1.47;1.17;;;14.20;83.80;14.20;100366.00;;;;4970394;28;87913;-65
2023/07/19 01:06:43;;;;;;;2.50;0.97;;;14.10;83.90;14.10;100366.00;;;;4970824;28;88376;-66
2023/07/19 01:09:13;;;;;;;2.20;1.35;;;14.10;84.10;14.00;100369.00;;;;4967483;28;87939;-64
2023/07/19 01:11:40;;;;;;;2.85;1.60;;;14.00;84.20;14.00;100371.00;;;;4970413;28;90206;-66
2023/07/19 01:14:06;;;;;;;2.47;1.67;;;14.00;84.40;13.90;100368.00;;;;4968330;28;88130;-65
2023/07/19 01:16:31;;;;;;;2.07;1.70;;;13.90;84.70;13.90;100376.00;;;;4967572;28;88424;-65
2023/07/19 01:18:57;;;;;;;1.88;1.25;;;13.80;84.90;13.90;100371.00;;;;4966841;28;104891;-64
2023/07/19 01:21:23;;;;;;;2.23;1.43;;;13.80;85.00;13.80;100363.00;;;;4968813;28;109044;-65
2023/07/19 01:23:50;;;;;;;2.83;1.30;;;13.80;85.60;13.80;100357.00;;;;4967021;28;89004;-66
2023/07/19 01:26:16;;;;;;;2.60;1.47;;;13.80;85.40;13.80;100358.00;;;;4970297;28;88105;-64
2023/07/19 01:28:42;;;;;;;1.50;1.20;;;13.70;85.60;13.70;100344.00;;;;4968429;28;88545;-65
2023/07/19 01:31:11;;;;;;;1.77;1.60;;;13.70;86.00;13.70;100352.00;;;;4968554;28;110881;-66
2023/07/19 01:33:37;;;;;;;1.27;1.17;;;13.70;86.30;13.70;100354.00;;;;4967760;28;87965;-65
2023/07/19 01:36:03;;;;;;;3.17;1.40;;;13.70;86.70;13.60;100347.00;;;;4967288;28;111009;-65
2023/07/19 01:38:29;;;;;;;2.37;1.40;;;13.60;87.40;13.60;100354.00;;;;4970540;28;87852;-66
2023/07/19 01:40:55;;;;;;;0.90;0.87;;;13.50;87.80;13.50;100349.00;;;;4968435;28;87601;-65
2023/07/19 01:43:20;;;;;;;1.20;1.10;;;13.50;88.40;13.40;100355.00;;;;4969417;28;87784;-65
2023/07/19 01:45:46;;;;;;;2.20;1.40;;;13.40;88.90;13.40;100353.00;;;;4966530;28;97595;-66
2023/07/19 01:48:12;;;;;;;1.40;1.30;;;13.30;89.90;13.30;100349.00;;;;4970024;28;88830;-66
2023/07/19 01:50:37;;;;;;;0.97;0.90;;;13.30;90.10;13.20;100352.00;;;;4969688;28;88069;-66
2023/07/19 01:53:03;;;;;;;2.50;1.57;;;13.20;90.30;13.20;100336.00;;;;4966445;28;108268;-64
2023/07/19 01:55:30;;;;;;;1.83;1.20;;;13.20;90.40;13.10;100333.00;;;;4970266;28;117848;-64
2023/07/19 01:57:55;;;;;;;2.07;1.57;;;13.10;90.70;13.10;100331.00;;;;4964185;28;107633;-64
2023/07/19 02:00:21;;;;;;;2.37;1.40;;;13.10;90.80;13.00;100334.00;;;;4963508;28;110491;-66
2023/07/19 02:02:47;;;;;;;1.07;1.03;;;13.00;91.00;13.00;100333.00;;;;4970259;28;107269;-64
2023/07/19 02:05:13;;;;;;;2.23;1.00;;;13.00;91.10;13.00;100325.00;;;;4966776;28;117704;-64
2023/07/19 02:07:38;;;;;;;1.63;1.27;;;13.00;91.20;13.00;100331.00;;;;4965914;28;87926;-64
2023/07/19 02:10:05;;;;;;;1.30;1.07;;;13.00;91.30;13.00;100322.00;;;;4963788;28;87926;-65
2023/07/19 02:12:30;;;;;;;1.83;1.47;;;13.00;91.40;12.90;100325.00;;;;4966063;28;88790;-66
2023/07/19 02:14:56;;;;;;;1.07;1.00;;;13.00;91.50;13.00;100332.00;;;;4967138;28;116784;-65
2023/07/19 02:17:22;;;;;;;1.50;1.40;;;12.90;91.60;12.90;100330.00;;;;4966100;28;117967;-65
2023/07/19 02:19:48;;;;;;;1.47;1.37;;;12.90;91.70;12.90;100338.00;;;;4966594;28;87842;-65
2023/07/19 02:22:15;;;;;;;1.20;1.10;;;12.90;91.80;12.90;100325.00;;;;4968117;28;98080;-65
2023/07/19 02:24:41;;;;;;;2.07;1.30;;;12.90;92.00;12.90;100331.00;;;;4968111;28;89092;-65
2023/07/19 02:27:07;;;;;;;1.83;1.50;;;12.90;92.20;12.90;100325.00;;;;4969560;28;108688;-65
2023/07/19 02:29:33;;;;;;;2.03;1.40;;;12.90;92.40;12.80;100330.00;;;;4968716;28;87211;-66
2023/07/19 02:31:58;;;;;;;0.97;0.90;;;12.80;92.60;12.80;100325.00;;;;4968663;28;108588;-65
2023/07/19 02:34:24;;;;;;;2.50;1.47;;;12.80;92.90;12.70;100336.00;;;;4964584;28;88195;-64
2023/07/19 02:36:50;;;;;;;2.97;1.47;;;12.70;93.00;12.70;100324.00;;;;4964774;28;117311;-65
2023/07/19 02:39:16;;;;;;;1.77;1.17;;;12.70;93.10;12.70;100319.00;;;;4971335;28;88120;-65
2023/07/19 02:41:42;;;;;;;1.63;1.53;;;12.70;93.20;12.70;100317.00;;;;4970858;28;87707;-65
2023/07/19 02:44:08;;;;;;;0.83;0.83;;;12.70;93.30;12.70;100305.00;;;;4971910;28;117433;-65
2023/07/19 02:46:39;;;;;;;1.23;1.13;;;12.70;93.40;12.70;100302.00;;;;4965046;28;116891;-64
2023/07/19 02:49:05;;;;;;;1.80;1.50;;;12.60;93.90;12.60;100304.00;;;;4968169;28;92130;-64
2023/07/19 02:51:31;;;;;;;1.20;1.10;;;12.60;93.60;12.50;100311.00;;;;4966541;28;108117;-65
2023/07/19 02:53:56;;;;;;;2.43;1.30;;;12.50;93.60;12.50;100313.00;;;;4968992;28;113904;-65
2023/07/19 02:56:22;;;;;;;4.27;1.57;;;12.50;93.80;12.50;100313.00;;;;4965297;28;103598;-65
2023/07/19 02:58:48;;;;;;;2.67;1.50;;;12.50;94.30;12.40;100307.00;;;;4970146;28;87833;-64
2023/07/19 03:01:16;;;;;;;2.47;1.03;;;12.50;94.10;12.40;100306.00;;;;4962928;28;107808;-64
2023/07/19 03:03:42;;;;;;;1.93;1.30;;;12.40;94.20;12.30;100313.00;;;;4965839;28;88538;-66
2023/07/19 03:06:11;;;;;;;2.90;1.53;;;12.40;94.30;12.30;100300.00;;;;4965783;28;88907;-65
2023/07/19 03:08:49;;;;;;;3.33;1.90;;;12.30;94.50;12.30;100299.00;;;;4966672;28;110921;-65
2023/07/19 03:11:14;;;;;;;1.53;1.43;;;12.30;94.60;12.20;100299.00;;;;4966802;28;96727;-66
2023/07/19 03:13:40;;;;;;;2.30;1.60;;;12.20;94.60;12.20;100303.00;;;;4961979;28;116495;-65
2023/07/19 03:16:06;;;;;;;3.37;1.77;;;12.20;94.60;12.20;100311.00;;;;4961225;28;117774;-65
2023/07/19 03:18:32;;;;;;;2.13;1.00;;;12.20;94.70;12.20;100309.00;;;;4970358;28;87644;-65
2023/07/19 03:20:59;;;;;;;2.43;1.57;;;12.20;94.70;12.20;100309.00;;;;4969278;28;110621;-65
2023/07/19 03:23:26;;;;;;;2.20;2.00;;;12.20;94.80;12.10;100303.00;;;;4969022;28;90740;-66
2023/07/19 03:25:51;;;;;;;2.83;1.03;;;12.20;94.90;12.10;100300.00;;;;4969355;28;96763;-65
2023/07/19 03:28:17;;;;;;;1.00;1.00;;;12.20;95.00;12.10;100304.00;;;;4970305;28;103351;-65
2023/07/19 03:30:43;;;;;;;2.00;1.80;;;12.10;95.00;12.10;100306.00;;;;4968254;28;107625;-67
2023/07/19 03:33:08;;;;;;;2.23;1.93;;;12.10;95.00;12.10;100297.00;;;;4970380;28;113896;-65
2023/07/19 03:35:34;;;;;;;2.23;1.50;;;12.10;95.10;12.10;100308.00;;;;4969093;28;111798;-65
2023/07/19 03:38:00;;;;;;;1.53;1.43;;;12.10;95.20;12.10;100300.00;;;;4966912;28;110572;-65
2023/07/19 03:40:25;;;;;;;2.10;1.53;;;12.20;95.30;12.10;100308.00;;;;4971127;28;87777;-65
2023/07/19 03:42:51;;;;;;;2.10;1.47;;;12.20;95.30;12.20;100308.00;;;;4970235;28;88078;-66
2023/07/19 03:45:17;;;;;;;2.83;1.70;;;12.20;95.40;12.20;100307.00;;;;4967968;28;116272;-66
2023/07/19 03:47:42;;;;;;;2.70;1.87;;;12.20;95.50;12.20;100304.00;;;;4971261;28;110417;-65
2023/07/19 03:50:08;;;;;;;2.17;1.40;;;12.20;95.60;12.30;100301.00;;;;4968576;28;108588;-65
2023/07/19 03:52:34;;;;;;;3.30;1.43;;;12.20;95.70;12.30;100302.00;;;;4968591;28;107963;-65
2023/07/19 03:55:00;;;;;;;5.47;2.27;;;12.30;95.80;12.30;100305.00;;;;4971658;28;117364;-64
2023/07/19 03:57:26;;;;;;;1.30;1.20;;;12.30;95.90;12.30;100307.00;;;;4966555;28;110488;-66
2023/07/19 03:59:51;;;;;;;1.70;1.07;;;12.30;96.00;12.30;100305.00;;;;4968246;28;107872;-64
2023/07/19 04:02:17;;;;;;;2.40;1.73;;;12.30;96.20;12.30;100303.00;;;;4968951;28;109086;-65
2023/07/19 04:04:43;;;;;;;1.53;1.40;;;12.30;96.40;12.40;100311.00;;;;4967413;28;117279;-64
2023/07/19 04:07:08;;;;;;;1.83;1.53;;;12.30;96.50;12.40;100304.00;;;;4972028;28;87144;-65
2023/07/19 04:09:34;;;;;;;2.00;1.43;;;12.30;96.50;12.40;100307.00;;;;4968344;28;109036;-65
2023/07/19 04:12:00;;;;;;;1.90;1.27;;;12.40;96.60;12.60;100308.00;;;;4966729;28;117177;-67
2023/07/19 04:14:26;;;;;;;2.43;1.57;;;12.40;96.80;12.60;100299.00;;;;4967103;28;90588;-65
2023/07/19 04:16:51;;;;;;;1.63;1.53;;;12.50;96.60;12.70;100296.00;;;;4966742;28;103695;-64
2023/07/19 04:19:17;;;;;;;1.77;1.63;;;12.60;96.70;12.80;100294.00;;;;4972172;28;107377;-66
2023/07/19 04:21:42;;;;;;;1.90;1.07;;;12.70;96.60;12.80;100290.00;;;;4968456;28;118006;-65
2023/07/19 04:24:08;;;;;;;1.63;1.43;;;12.70;96.50;12.90;100288.00;;;;4971916;28;114323;-64
2023/07/19 04:26:34;;;;;;;2.43;2.03;;;12.80;96.50;13.00;100289.00;;;;4970701;28;87802;-65
2023/07/19 04:29:00;;;;;;;3.80;1.97;;;12.90;96.50;13.00;100285.00;;;;4968118;28;109490;-65
2023/07/19 04:31:25;;;;;;;2.53;1.57;;;12.90;96.70;13.10;100288.00;;;;4971139;28;118090;-67
2023/07/19 04:33:51;;;;;;;2.10;1.63;;;13.00;96.70;13.10;100293.00;;;;4967976;28;87813;-66
2023/07/19 04:36:18;;;;;;;1.77;1.23;;;13.00;96.80;13.20;100290.00;;;;4971182;28;87688;-65
2023/07/19 04:38:43;;;;;;;1.37;1.23;;;13.10;96.90;13.30;100285.00;;;;4969293;28;89022;-65
2023/07/19 04:41:09;;;;;;;1.90;1.53;;;13.20;97.00;13.40;100294.00;;;;4968701;28;118140;-65
2023/07/19 04:43:35;;;;;;;3.20;1.87;;;13.30;96.90;13.60;100289.00;;;;4964134;28;88234;-64
2023/07/19 04:46:01;;;;;;;2.13;1.70;;;13.50;96.90;13.80;100288.00;;;;4968340;28;101076;-64
2023/07/19 04:48:27;;;;;;;3.30;2.30;;;13.60;96.80;13.90;100295.00;;;;4966309;28;88147;-65
2023/07/19 04:50:56;;;;;;;1.30;1.00;;;13.80;96.70;14.10;100289.00;;;;4967083;28;88501;-65
2023/07/19 04:53:24;;;;;;;1.97;1.63;;;14.00;96.50;14.30;100292.00;;;;4961426;28;88246;-65
2023/07/19 04:55:52;;;;;;;1.20;1.03;;;14.20;96.40;14.50;100300.00;;;;4967790;28;86983;-66
2023/07/19 04:58:19;;;;;;;1.92;1.52;;;14.30;96.30;14.70;100290.00;;;;4969335;28;87898;-65
2023/07/19 05:00:44;;;;;;;2.47;1.23;;;14.60;96.10;14.90;100291.00;;;;4967848;28;88256;-65
2023/07/19 05:03:11;;;;;;;1.10;0.90;;;14.70;95.90;15.10;100296.00;;;;4967063;28;118025;-65
2023/07/19 05:05:37;;;;;;;1.30;0.80;;;15.00;95.70;15.30;100299.00;;;;4967999;28;87847;-65
2023/07/19 05:08:04;;;;;;;3.70;1.57;;;15.10;95.50;15.50;100294.00;;;;4966615;28;93432;-66
2023/07/19 05:10:30;;;;;;;3.80;1.55;;;15.30;95.30;15.70;100291.00;;;;4970619;28;88195;-66
2023/07/19 05:12:56;;;;;;;2.25;1.75;;;15.50;95.10;15.90;100295.00;;;;4969964;28;88730;-65
2023/07/19 05:15:21;;;;;;;1.65;1.38;;;15.70;94.90;16.20;100303.00;;;;4966872;28;110203;-66
2023/07/19 05:17:47;;;;;;;6.22;2.03;;;16.00;94.70;16.40;100293.00;;;;4968151;28;108794;-65
2023/07/19 05:20:13;;;;;;;1.45;1.27;;;16.20;94.40;16.70;100285.00;;;;4968941;28;116149;-66
2023/07/19 05:22:38;;;;;;;3.22;1.70;;;16.50;94.20;17.00;100284.00;;;;4968898;28;87772;-65
2023/07/19 05:25:05;;;;;;;4.13;1.83;;;16.80;93.80;17.30;100291.00;;;;4968043;28;111547;-65
2023/07/19 05:27:31;;;;;;;0.70;0.70;;;17.10;93.40;17.60;100291.00;;;;4967118;28;88787;-64
2023/07/19 05:29:56;;;;;;;1.23;1.10;;;17.40;93.00;17.90;100286.00;;;;4972741;28;88759;-65
2023/07/19 05:32:22;;;;;;;3.03;1.50;;;17.60;92.60;18.10;100286.00;;;;4965040;28;117567;-65
2023/07/19 05:34:47;;;;;;;1.52;0.90;;;17.90;92.20;18.30;100277.00;;;;4965623;28;109892;-64
2023/07/19 05:37:13;;;;;;;0.82;0.82;;;18.10;91.50;18.50;100290.00;;;;4969676;28;106912;-65
2023/07/19 05:39:39;;;;;;;1.17;1.08;;;18.30;91.00;18.70;100288.00;;;;4968585;28;117192;-64
2023/07/19 05:42:05;;;;;;;6.38;2.08;;;18.60;90.70;18.90;100288.00;;;;4966083;28;116824;-66
2023/07/19 05:44:31;;;;;;;2.75;0.95;;;18.70;90.40;19.00;100288.00;;;;4968198;28;99441;-66
2023/07/19 05:46:57;;;;;;;1.42;1.33;;;18.80;89.70;19.20;100292.00;;;;4968581;28;109292;-66
2023/07/19 05:49:22;;;;;;;1.00;0.88;;;19.00;89.20;19.40;100292.00;;;;4969337;28;89082;-66
2023/07/19 05:51:48;;;;;;;1.25;1.15;;;19.20;88.70;19.70;100281.00;;;;4965418;28;89105;-65
2023/07/19 05:54:15;;;;;;;2.13;1.42;;;19.40;87.70;19.90;100278.00;;;;4968243;28;89390;-65
2023/07/19 05:56:41;;;;;;;1.58;0.80;;;19.70;86.60;20.10;100275.00;;;;4968751;28;88345;-65
2023/07/19 05:59:06;;;;;;;1.45;1.17;;;19.90;85.70;20.40;100284.00;;;;4967418;28;117874;-66
2023/07/19 06:01:33;;;;;;;2.03;1.48;;;20.10;84.80;20.60;100278.00;;;;4965450;28;117429;-66
2023/07/19 06:03:58;;;;;;;1.13;1.02;;;20.30;83.60;20.80;100283.00;;;;4967936;28;87859;-66
2023/07/19 06:06:25;;;;;;;0.68;0.65;;;20.60;82.90;21.10;100285.00;;;;4969733;28;88367;-65
2023/07/19 06:08:51;;;;;;;1.58;0.90;;;20.80;81.60;21.30;100278.00;;;;4965482;28;87815;-65
2023/07/19 06:11:16;;;;;;;4.53;1.08;;;21.10;80.40;21.60;100281.00;;;;4965348;28;114613;-65
2023/07/19 06:13:42;;;;;;;1.30;0.82;;;21.30;79.50;21.80;100276.00;;;;4967723;28;109522;-65
2023/07/19 06:16:07;;;;;;;1.27;0.85;;;21.70;78.60;22.10;100282.00;;;;4970021;28;108920;-65
2023/07/19 06:18:33;;;;;;;1.90;1.00;;;21.80;77.50;22.30;100280.00;;;;4966476;28;90287;-65
2023/07/19 06:20:59;;;;;;;0.93;0.82;;;22.10;76.30;22.50;100271.00;;;;4969957;28;88800;-66
2023/07/19 06:23:25;;;;;;;0.70;0.70;;;22.30;75.00;22.70;100267.00;;;;4970581;28;87893;-66
2023/07/19 06:25:51;;;;;;;1.48;1.10;;;22.50;73.60;23.00;100288.00;;;;4969529;28;87790;-66
2023/07/19 06:28:16;;;;;;;1.42;0.90;;;22.70;72.50;23.20;100273.00;;;;4965270;28;102589;-67
2023/07/19 06:30:42;;;;;;;2.33;1.08;;;23.00;71.60;23.40;100277.00;;;;4964274;28;115507;-66
2023/07/19 06:33:09;;;;;;;1.90;1.38;;;23.20;70.30;23.70;100272.00;;;;4966433;28;86946;-65
2023/07/19 06:35:34;;;;;;;1.27;0.70;;;23.40;68.30;23.90;100277.00;;;;4966448;28;101412;-65
2023/07/19 06:38:00;;;;;;;1.08;0.98;;;23.60;67.40;24.10;100272.00;;;;4965817;28;111187;-65
2023/07/19 06:40:26;;;;;;;0.88;0.50;;;23.80;66.10;24.30;100274.00;;;;4962861;28;106627;-66
2023/07/19 06:42:53;;;;;;;1.63;0.60;;;24.10;65.40;24.60;100277.00;;;;4963863;28;109649;-66
2023/07/19 06:45:19;;;;;;;1.17;1.08;;;24.30;64.00;24.80;100272.00;;;;4964867;28;87927;-65
2023/07/19 06:47:45;;;;;;;0.50;0.50;;;24.50;62.00;24.90;100265.00;;;;4968250;28;91925;-65
2023/07/19 06:50:10;;;;;;;3.75;1.08;;;24.70;61.20;25.10;100266.00;;;;4962793;28;107056;-66
2023/07/19 06:52:36;;;;;;;1.27;0.80;;;24.90;60.00;25.30;100263.00;;;;4966930;28;100832;-66
2023/07/19 06:55:04;;;;;;;0.50;0.50;;;25.10;58.90;25.50;100256.00;;;;4967800;28;87999;-66
2023/07/19 06:57:30;;;;;;;0.57;0.57;;;25.20;58.30;25.70;100258.00;;;;4968340;28;107341;-64
2023/07/19 06:59:58;;;;;;;1.73;0.98;;;25.50;57.70;25.90;100259.00;;;;4967686;28;87902;-65
2023/07/19 07:02:24;;;;;;;0.40;0.35;;;25.60;56.60;26.10;100265.00;;;;4970362;28;103538;-66
2023/07/19 07:04:50;;;;;;;2.47;0.98;;;25.80;56.00;26.40;100260.00;;;;4970036;28;108890;-65
2023/07/19 07:07:19;;;;;;;2.38;0.68;;;26.10;55.20;26.50;100257.00;;;;4972732;28;88878;-67
2023/07/19 07:09:45;;;;;;;2.10;1.13;;;26.20;53.80;26.60;100257.00;;;;4966861;28;89146;-66
2023/07/19 07:12:11;;;;;;;1.85;0.40;;;26.40;53.70;26.80;100263.00;;;;4969390;28;87898;-66
2023/07/19 07:14:38;;;;;;;0.60;0.60;;;26.50;53.70;26.90;100259.00;;;;4968900;28;87849;-66
2023/07/19 07:17:06;;;;;;;2.53;1.05;;;26.60;52.40;27.00;100254.00;;;;4974594;28;93965;-65
2023/07/19 07:19:31;;;;;;;0.88;0.70;;;26.70;51.70;27.20;100260.00;;;;4969916;28;87907;-65
2023/07/19 07:21:57;;;;;;;1.00;0.57;;;26.90;51.30;27.30;100255.00;;;;4968652;28;103864;-64
2023/07/19 07:24:23;;;;;;;0.93;0.60;;;27.00;50.90;27.50;100263.00;;;;4967834;28;87861;-65
2023/07/19 07:26:49;;;;;;;0.70;0.70;;;27.20;50.40;27.60;100256.00;;;;4971001;28;117773;-66
2023/07/19 07:29:14;;;;;;;0.47;0.47;;;27.40;49.20;27.80;100250.00;;;;4969686;28;119197;-66
2023/07/19 07:31:40;;;;;;;0.63;0.50;;;27.50;48.30;27.80;100246.00;;;;4966414;28;109548;-66
2023/07/19 07:34:08;;;;;;;1.35;0.45;;;27.60;48.10;28.00;100245.00;;;;4970497;28;94921;-66
2023/07/19 07:36:34;;;;;;;1.92;1.02;;;27.70;48.70;28.10;100244.00;;;;4969658;28;88410;-67
2023/07/19 07:38:59;;;;;;;1.50;0.70;;;27.90;47.00;28.20;100245.00;;;;4973071;28;87966;-67
2023/07/19 07:41:25;;;;;;;0.55;0.43;;;28.00;46.60;28.20;100247.00;;;;4973960;28;109991;-65
2023/07/19 07:43:51;;;;;;;1.95;1.05;;;28.00;46.70;28.40;100245.00;;;;4968005;28;109014;-66
2023/07/19 07:46:16;;;;;;;1.30;0.90;;;28.10;46.80;28.50;100240.00;;;;4966652;28;116897;-66
2023/07/19 07:48:42;;;;;;;1.10;0.68;;;28.20;46.30;28.60;100243.00;;;;4967322;28;111193;-66
2023/07/19 07:51:08;;;;;;;2.10;0.80;;;28.40;45.40;28.70;100249.00;;;;4970845;28;111148;-67
2023/07/19 07:53:33;;;;;;;0.90;0.47;;;28.50;44.30;28.70;100247.00;;;;4971675;28;109516;-67
2023/07/19 07:55:59;;;;;;;3.10;0.80;;;28.50;44.00;28.80;100246.00;;;;4969053;28;118402;-68
2023/07/19 07:58:25;;;;;;;0.77;0.57;;;28.60;44.40;29.00;100242.00;;;;4971212;28;89558;-68
2023/07/19 08:00:53;;;;;;;1.00;0.70;;;28.70;44.10;29.20;100244.00;;;;4968910;28;109341;-67
2023/07/19 08:03:19;;;;;;;0.52;0.52;;;28.90;43.80;29.40;100232.00;;;;4970941;28;88004;-67
2023/07/19 08:05:45;;;;;;;1.23;0.95;;;29.10;43.20;29.60;100232.00;;;;4969418;28;118196;-68
2023/07/19 08:08:11;;;;;;;0.35;0.35;;;29.30;42.60;29.80;100235.00;;;;4965008;28;116980;-67
2023/07/19 08:10:40;;;;;;;0.77;0.73;;;29.60;42.10;29.90;100228.00;;;;4968266;28;87499;-67
2023/07/19 08:13:07;;;;;;;0.47;0.47;;;29.60;40.50;30.00;100228.00;;;;4967955;28;87778;-66
2023/07/19 08:15:33;;;;;;;0.88;0.77;;;29.80;40.60;30.20;100226.00;;;;4970027;28;88989;-67
2023/07/19 08:18:00;;;;;;;1.17;0.57;;;29.90;39.70;30.30;100222.00;;;;4970338;28;105594;-67
2023/07/19 08:20:26;;;;;;;0.93;0.70;;;30.00;40.00;30.50;100215.00;;;;4972075;28;88062;-67
2023/07/19 08:22:51;;;;;;;4.28;0.98;;;30.20;39.00;30.50;100214.00;;;;4973224;28;88127;-67
2023/07/19 08:25:19;;;;;;;1.35;0.80;;;30.30;38.20;30.40;100220.00;;;;4967657;28;116707;-66
2023/07/19 08:27:45;;;;;;;1.70;0.63;;;30.30;38.70;30.50;100223.00;;;;4966560;28;88376;-66
2023/07/19 08:30:15;;;;;;;0.85;0.45;;;30.30;38.60;30.60;100218.00;;;;4973083;28;110575;-67
2023/07/19 08:32:45;;;;;;;0.93;0.43;;;30.40;38.50;30.90;100220.00;;;;4969794;28;87805;-67
2023/07/19 08:35:12;;;;;;;0.80;0.50;;;30.60;37.90;31.10;100220.00;;;;4966927;28;88012;-67
2023/07/19 08:37:38;;;;;;;1.42;0.82;;;30.80;37.00;31.20;100210.00;;;;4971309;28;87954;-67
2023/07/19 08:40:04;;;;;;;2.30;0.77;;;31.00;36.70;31.30;100215.00;;;;4971732;28;103195;-67
2023/07/19 08:42:31;;;;;;;4.10;1.17;;;31.00;34.90;31.10;100212.00;;;;4968669;28;89107;-67
2023/07/19 08:44:57;;;;;;;4.63;1.00;;;30.90;34.50;30.80;100211.00;;;;4966943;28;117124;-68
2023/07/19 08:47:23;;;;;;;0.65;0.65;;;30.70;35.00;30.80;100207.00;;;;4969613;28;117431;-68
2023/07/19 08:49:49;;;;;;;1.02;0.80;;;30.60;35.80;30.90;100207.00;;;;4970397;28;88173;-67
2023/07/19 08:52:15;;;;;;;0.88;0.60;;;30.60;36.10;30.90;100210.00;;;;4967574;28;87894;-67
2023/07/19 08:54:41;;;;;;;1.02;0.65;;;30.60;36.00;31.00;100202.00;;;;4967276;28;116654;-66
2023/07/19 08:57:07;;;;;;;1.75;0.85;;;30.70;35.80;31.00;100200.00;;;;4966410;28;115825;-67
2023/07/19 08:59:32;;;;;;;1.75;0.98;;;30.70;36.00;31.10;100198.00;;;;4969921;28;110659;-67
2023/07/19 09:01:58;;;;;;;0.75;0.70;;;30.80;35.80;31.20;100195.00;;;;4963974;28;108731;-67
2023/07/19 09:04:24;;;;;;;0.50;0.50;;;30.90;35.70;31.40;100199.00;;;;4966693;28;116237;-67
2023/07/19 09:06:50;;;;;;;3.63;1.10;;;31.00;36.20;31.70;100196.00;;;;4968735;28;116344;-66
2023/07/19 09:09:18;;;;;;;5.57;0.95;;;31.30;36.00;32.10;100187.00;;;;4966043;28;110379;-68
2023/07/19 09:11:50;;;;;;;1.30;0.90;;;31.60;36.00;32.40;100189.00;;;;4970249;28;108758;-67
2023/07/19 09:14:16;;;;;;;2.70;0.77;;;31.90;35.60;32.70;100195.00;;;;4967286;28;88135;-67
2023/07/19 09:16:42;;;;;;;2.33;0.85;;;32.30;35.70;33.00;100192.00;;;;4966957;28;118371;-67
2023/07/19 09:19:09;;;;;;;0.60;0.45;;;32.50;34.70;33.00;100185.00;;;;4972344;28;88998;-67
2023/07/19 09:21:44;;;;;;;1.15;0.70;;;32.60;34.00;33.10;100182.00;;;;4972454;28;88085;-66
2023/07/19 09:24:12;;;;;;;0.60;0.43;;;32.70;33.90;33.10;100190.00;;;;4969368;28;87161;-68
2023/07/19 09:26:48;;;;;;;0.52;0.50;;;32.70;34.50;33.20;100177.00;;;;4969628;28;87627;-68
2023/07/19 09:29:13;;;;;;;0.28;0.25;;;32.80;33.90;33.40;100183.00;;;;4971163;28;88785;-68
2023/07/19 09:32:03;;;;;;;1.23;0.63;;;33.00;33.90;33.70;100186.00;;;;4965732;28;109696;-66
2023/07/19 09:34:29;;;;;;;1.95;0.98;;;33.20;33.70;33.90;100186.00;;;;4963991;28;107145;-67
2023/07/19 09:36:55;;;;;;;3.28;0.85;;;33.40;33.30;33.90;100184.00;;;;4951370;28;89541;-66
2023/07/19 09:39:24;;;;;;;0.77;0.55;;;33.50;33.10;33.80;100181.00;;;;4972868;28;87809;-66
2023/07/19 09:41:51;;;;;;;0.68;0.55;;;33.50;33.30;33.70;100191.00;;;;4971826;28;87761;-66
2023/07/19 09:44:17;;;;;;;4.80;0.93;;;33.40;33.10;33.40;100192.00;;;;4968013;28;103872;-67
2023/07/19 09:46:44;;;;;;;1.25;0.73;;;33.20;32.80;32.90;100186.00;;;;4970681;28;115578;-67
2023/07/19 09:49:11;;;;;;;0.60;0.50;;;32.80;33.00;32.60;100188.00;;;;4970532;28;87236;-67
2023/07/19 09:51:42;;;;;;;1.05;0.52;;;32.40;33.20;32.50;100176.00;;;;4968224;28;101046;-66
2023/07/19 09:54:13;;;;;;;1.20;0.60;;;32.30;33.70;32.50;100180.00;;;;4968401;28;87832;-66
2023/07/19 09:56:43;;;;;;;2.67;0.80;;;32.20;33.60;32.40;100188.00;;;;4966145;28;89513;-66
2023/07/19 09:59:13;;;;;;;0.68;0.68;;;32.10;33.70;32.40;100186.00;;;;4970143;28;89351;-67
2023/07/19 10:01:40;;;;;;;1.27;0.50;;;32.00;33.80;32.30;100183.00;;;;4962332;28;103115;-66
2023/07/19 10:04:44;;;;;;;2.10;0.80;;;31.90;33.60;32.10;100182.00;;;;4967904;28;87891;-67
2023/07/19 10:07:12;;;;;;;1.65;0.77;;;31.80;33.60;32.00;100188.00;;;;4967194;28;87715;-68
2023/07/19 10:09:43;;;;;;;1.13;0.57;;;31.60;34.00;31.90;100177.00;;;;4968124;28;87748;-67
2023/07/19 10:12:18;;;;;;;1.60;0.52;;;31.60;34.10;31.70;100174.00;;;;4969171;28;88048;-66
2023/07/19 10:15:05;;;;;;;0.85;0.65;;;31.40;33.80;31.60;100179.00;;;;4968830;28;117551;-68
2023/07/19 10:17:54;;;;;;;0.65;0.40;;;31.30;34.00;31.30;100182.00;;;;4969508;28;87948;-66
2023/07/19 10:20:35;;;;;;;0.50;0.50;;;31.10;34.00;31.20;100179.00;;;;4968552;28;88739;-67
2023/07/19 10:23:03;;;;;;;1.88;0.95;;;30.90;34.40;31.00;100178.00;;;;4967120;28;88811;-68
2023/07/19 10:25:45;;;;;;;2.15;0.70;;;30.70;34.30;30.80;100171.00;;;;4970411;28;87970;-68
2023/07/19 10:28:29;;;;;;;1.17;0.68;;;30.60;34.70;30.60;100167.00;;;;4967784;28;87823;-68
2023/07/19 10:30:57;;;;;;;7.72;1.20;;;30.40;34.90;30.40;100167.00;;;;4950713;28;88027;-67
2023/07/19 10:33:29;;;;;;;2.65;0.75;;;30.20;34.80;30.20;100168.00;;;;4970825;28;88231;-68
2023/07/19 10:36:07;;;;;;;0.52;0.45;;;30.00;34.90;30.10;100166.00;;;;4964997;28;88894;-67
2023/07/19 10:38:39;;;;;;;1.20;0.77;;;29.80;35.30;30.10;100163.00;;;;4968490;28;89114;-67
2023/07/19 10:41:07;;;;;;;0.60;0.32;;;29.80;35.60;30.20;100169.00;;;;4966935;28;86959;-67